sensor_id;sensor_type;location;lat;lon;timestamp;P1;durP1;ratioP1;P2;durP2;ratioP2
53961;SDS011;39868;53.398;6.564;2022-11-04T00:01:43;7.28;;;4.50;;
53961;SDS011;39868;53.398;6.564;2022-11-04T00:04:13;6.15;;;4.25;;
53961;SDS011;39868;53.398;6.564;2022-11-04T00:06:41;5.95;;;4.45;;
53961;SDS011;39868;53.398;6.564;2022-11-04T00:09:10;8.10;;;5.13;;
53961;SDS011;39868;53.398;6.564;2022-11-04T00:11:41;5.88;;;4.55;;
53961;SDS011;39868;53.398;6.564;2022-11-04T00:14:28;6.90;;;4.57;;
53961;SDS011;39868;53.398;6.564;2022-11-04T00:16:56;6.88;;;4.68;;
53961;SDS011;39868;53.398;6.564;2022-11-04T00:19:43;7.22;;;4.75;;
53961;SDS011;39868;53.398;6.564;2022-11-04T00:22:31;7.35;;;4.93;;
53961;SDS011;39868;53.398;6.564;2022-11-04T00:25:17;9.02;;;4.78;;
53961;SDS011;39868;53.398;6.564;2022-11-04T00:28:10;7.63;;;5.05;;
53961;SDS011;39868;53.398;6.564;2022-11-04T00:30:58;7.75;;;5.18;;
53961;SDS011;39868;53.398;6.564;2022-11-04T00:33:46;9.40;;;5.40;;
53961;SDS011;39868;53.398;6.564;2022-11-04T00:36:14;6.47;;;5.25;;
53961;SDS011;39868;53.398;6.564;2022-11-04T00:38:42;8.65;;;4.70;;
53961;SDS011;39868;53.398;6.564;2022-11-04T00:41:10;4.97;;;3.42;;
53961;SDS011;39868;53.398;6.564;2022-11-04T00:44:03;3.42;;;2.63;;
53961;SDS011;39868;53.398;6.564;2022-11-04T00:46:32;3.25;;;2.20;;
53961;SDS011;39868;53.398;6.564;2022-11-04T00:49:00;3.80;;;2.40;;
53961;SDS011;39868;53.398;6.564;2022-11-04T00:51:28;3.03;;;2.00;;
53961;SDS011;39868;53.398;6.564;2022-11-04T00:53:55;2.97;;;2.17;;
53961;SDS011;39868;53.398;6.564;2022-11-04T00:56:23;2.55;;;2.08;;
53961;SDS011;39868;53.398;6.564;2022-11-04T00:58:51;4.85;;;2.53;;
53961;SDS011;39868;53.398;6.564;2022-11-04T01:01:19;3.38;;;2.15;;
53961;SDS011;39868;53.398;6.564;2022-11-04T01:03:47;1.98;;;1.20;;
53961;SDS011;39868;53.398;6.564;2022-11-04T01:06:17;2.67;;;2.47;;
53961;SDS011;39868;53.398;6.564;2022-11-04T01:08:46;3.03;;;2.03;;
53961;SDS011;39868;53.398;6.564;2022-11-04T01:11:14;2.45;;;2.00;;
53961;SDS011;39868;53.398;6.564;2022-11-04T01:13:42;1.80;;;1.70;;
53961;SDS011;39868;53.398;6.564;2022-11-04T01:16:10;1.50;;;1.50;;
53961;SDS011;39868;53.398;6.564;2022-11-04T01:18:39;1.92;;;1.67;;
53961;SDS011;39868;53.398;6.564;2022-11-04T01:21:07;1.33;;;1.23;;
53961;SDS011;39868;53.398;6.564;2022-11-04T01:23:39;1.77;;;1.63;;
53961;SDS011;39868;53.398;6.564;2022-11-04T01:26:08;1.50;;;1.30;;
53961;SDS011;39868;53.398;6.564;2022-11-04T01:28:37;1.98;;;1.20;;
53961;SDS011;39868;53.398;6.564;2022-11-04T01:31:09;1.45;;;1.38;;
53961;SDS011;39868;53.398;6.564;2022-11-04T01:33:38;2.00;;;1.40;;
53961;SDS011;39868;53.398;6.564;2022-11-04T01:36:06;2.70;;;2.60;;
53961;SDS011;39868;53.398;6.564;2022-11-04T01:38:35;5.20;;;3.40;;
53961;SDS011;39868;53.398;6.564;2022-11-04T01:41:03;5.50;;;5.10;;
53961;SDS011;39868;53.398;6.564;2022-11-04T01:46:32;5.55;;;4.88;;
53961;SDS011;39868;53.398;6.564;2022-11-04T01:49:11;4.50;;;4.20;;
53961;SDS011;39868;53.398;6.564;2022-11-04T01:51:44;3.75;;;3.55;;
53961;SDS011;39868;53.398;6.564;2022-11-04T01:54:14;3.70;;;3.40;;
53961;SDS011;39868;53.398;6.564;2022-11-04T01:56:42;3.78;;;3.33;;
53961;SDS011;39868;53.398;6.564;2022-11-04T01:59:13;3.65;;;3.50;;
53961;SDS011;39868;53.398;6.564;2022-11-04T02:01:47;3.97;;;3.67;;
53961;SDS011;39868;53.398;6.564;2022-11-04T02:04:14;4.70;;;3.80;;
53961;SDS011;39868;53.398;6.564;2022-11-04T02:06:59;3.75;;;3.55;;
53961;SDS011;39868;53.398;6.564;2022-11-04T02:09:29;4.70;;;4.38;;
53961;SDS011;39868;53.398;6.564;2022-11-04T02:11:58;5.53;;;3.80;;
53961;SDS011;39868;53.398;6.564;2022-11-04T02:14:44;4.18;;;3.97;;
53961;SDS011;39868;53.398;6.564;2022-11-04T02:20:07;3.90;;;3.70;;
53961;SDS011;39868;53.398;6.564;2022-11-04T02:34:17;3.80;;;3.50;;
53961;SDS011;39868;53.398;6.564;2022-11-04T02:37:18;4.47;;;4.18;;
53961;SDS011;39868;53.398;6.564;2022-11-04T02:42:31;3.90;;;3.70;;
53961;SDS011;39868;53.398;6.564;2022-11-04T02:45:13;4.50;;;4.10;;
53961;SDS011;39868;53.398;6.564;2022-11-04T02:47:49;4.13;;;3.90;;
53961;SDS011;39868;53.398;6.564;2022-11-04T02:50:44;4.00;;;3.70;;
53961;SDS011;39868;53.398;6.564;2022-11-04T02:56:03;4.10;;;3.80;;
53961;SDS011;39868;53.398;6.564;2022-11-04T02:58:34;4.20;;;3.90;;
53961;SDS011;39868;53.398;6.564;2022-11-04T03:01:10;5.05;;;3.90;;
53961;SDS011;39868;53.398;6.564;2022-11-04T03:03:44;4.00;;;3.80;;
53961;SDS011;39868;53.398;6.564;2022-11-04T03:06:16;4.13;;;3.83;;
53961;SDS011;39868;53.398;6.564;2022-11-04T03:08:48;4.22;;;3.85;;
53961;SDS011;39868;53.398;6.564;2022-11-04T03:11:20;3.97;;;3.65;;
53961;SDS011;39868;53.398;6.564;2022-11-04T03:16:43;4.50;;;4.30;;
53961;SDS011;39868;53.398;6.564;2022-11-04T03:19:17;4.30;;;4.10;;
53961;SDS011;39868;53.398;6.564;2022-11-04T03:21:59;4.35;;;3.95;;
53961;SDS011;39868;53.398;6.564;2022-11-04T03:24:32;5.15;;;3.95;;
53961;SDS011;39868;53.398;6.564;2022-11-04T03:27:13;4.47;;;4.10;;
53961;SDS011;39868;53.398;6.564;2022-11-04T03:29:45;4.45;;;4.00;;
53961;SDS011;39868;53.398;6.564;2022-11-04T03:35:01;4.25;;;3.95;;
53961;SDS011;39868;53.398;6.564;2022-11-04T03:37:29;3.90;;;3.80;;
53961;SDS011;39868;53.398;6.564;2022-11-04T03:39:57;4.10;;;3.80;;
53961;SDS011;39868;53.398;6.564;2022-11-04T03:42:25;3.90;;;3.60;;
53961;SDS011;39868;53.398;6.564;2022-11-04T03:44:54;3.97;;;3.60;;
53961;SDS011;39868;53.398;6.564;2022-11-04T03:47:26;4.05;;;3.75;;
53961;SDS011;39868;53.398;6.564;2022-11-04T03:50:00;9.48;;;4.00;;
53961;SDS011;39868;53.398;6.564;2022-11-04T03:52:32;3.92;;;3.63;;
53961;SDS011;39868;53.398;6.564;2022-11-04T03:55:00;3.97;;;3.67;;
53961;SDS011;39868;53.398;6.564;2022-11-04T04:00:14;4.13;;;3.88;;
53961;SDS011;39868;53.398;6.564;2022-11-04T04:05:32;4.30;;;4.10;;
53961;SDS011;39868;53.398;6.564;2022-11-04T04:16:41;4.53;;;4.15;;
53961;SDS011;39868;53.398;6.564;2022-11-04T04:19:18;4.35;;;4.10;;
53961;SDS011;39868;53.398;6.564;2022-11-04T04:21:49;4.10;;;3.90;;
53961;SDS011;39868;53.398;6.564;2022-11-04T04:24:20;4.38;;;3.97;;
53961;SDS011;39868;53.398;6.564;2022-11-04T04:27:10;5.30;;;3.95;;
53961;SDS011;39868;53.398;6.564;2022-11-04T04:30:03;4.50;;;4.20;;
53961;SDS011;39868;53.398;6.564;2022-11-04T04:32:42;4.32;;;4.03;;
53961;SDS011;39868;53.398;6.564;2022-11-04T04:35:10;4.80;;;4.40;;
53961;SDS011;39868;53.398;6.564;2022-11-04T04:37:57;4.82;;;4.20;;
53961;SDS011;39868;53.398;6.564;2022-11-04T04:44:11;4.20;;;4.00;;
53961;SDS011;39868;53.398;6.564;2022-11-04T04:47:04;4.35;;;4.07;;
53961;SDS011;39868;53.398;6.564;2022-11-04T04:49:33;4.53;;;4.10;;
53961;SDS011;39868;53.398;6.564;2022-11-04T04:52:02;5.05;;;4.15;;
53961;SDS011;39868;53.398;6.564;2022-11-04T04:54:32;4.67;;;4.37;;
53961;SDS011;39868;53.398;6.564;2022-11-04T04:57:00;4.28;;;4.07;;
53961;SDS011;39868;53.398;6.564;2022-11-04T04:59:27;4.50;;;4.30;;
53961;SDS011;39868;53.398;6.564;2022-11-04T05:01:55;4.60;;;4.30;;
53961;SDS011;39868;53.398;6.564;2022-11-04T05:04:23;4.50;;;4.30;;
53961;SDS011;39868;53.398;6.564;2022-11-04T05:06:50;4.40;;;4.20;;
53961;SDS011;39868;53.398;6.564;2022-11-04T05:09:18;4.65;;;4.43;;
53961;SDS011;39868;53.398;6.564;2022-11-04T05:11:45;5.20;;;4.60;;
53961;SDS011;39868;53.398;6.564;2022-11-04T05:14:13;4.60;;;4.40;;
53961;SDS011;39868;53.398;6.564;2022-11-04T05:16:41;4.60;;;4.40;;
53961;SDS011;39868;53.398;6.564;2022-11-04T05:19:08;4.55;;;4.35;;
53961;SDS011;39868;53.398;6.564;2022-11-04T05:21:36;4.88;;;4.57;;
53961;SDS011;39868;53.398;6.564;2022-11-04T05:24:03;4.80;;;4.60;;
53961;SDS011;39868;53.398;6.564;2022-11-04T05:26:31;5.13;;;4.72;;
53961;SDS011;39868;53.398;6.564;2022-11-04T05:28:58;4.80;;;4.60;;
53961;SDS011;39868;53.398;6.564;2022-11-04T05:31:26;4.90;;;4.50;;
53961;SDS011;39868;53.398;6.564;2022-11-04T05:33:56;5.18;;;4.63;;
53961;SDS011;39868;53.398;6.564;2022-11-04T05:36:25;4.97;;;4.60;;
53961;SDS011;39868;53.398;6.564;2022-11-04T05:38:53;4.93;;;4.63;;
53961;SDS011;39868;53.398;6.564;2022-11-04T05:41:23;5.10;;;4.90;;
53961;SDS011;39868;53.398;6.564;2022-11-04T05:43:53;5.38;;;5.18;;
53961;SDS011;39868;53.398;6.564;2022-11-04T05:46:23;5.93;;;5.60;;
53961;SDS011;39868;53.398;6.564;2022-11-04T05:48:51;4.95;;;4.75;;
53961;SDS011;39868;53.398;6.564;2022-11-04T05:51:20;5.05;;;4.80;;
53961;SDS011;39868;53.398;6.564;2022-11-04T05:53:49;5.40;;;5.10;;
53961;SDS011;39868;53.398;6.564;2022-11-04T05:56:17;5.50;;;5.30;;
53961;SDS011;39868;53.398;6.564;2022-11-04T05:58:45;5.50;;;5.20;;
53961;SDS011;39868;53.398;6.564;2022-11-04T06:03:55;5.15;;;4.95;;
53961;SDS011;39868;53.398;6.564;2022-11-04T06:06:25;5.20;;;4.80;;
53961;SDS011;39868;53.398;6.564;2022-11-04T06:08:55;5.35;;;5.05;;
53961;SDS011;39868;53.398;6.564;2022-11-04T06:11:23;5.60;;;5.30;;
53961;SDS011;39868;53.398;6.564;2022-11-04T06:13:52;5.35;;;4.95;;
53961;SDS011;39868;53.398;6.564;2022-11-04T06:16:21;4.13;;;3.90;;
53961;SDS011;39868;53.398;6.564;2022-11-04T06:18:49;4.20;;;3.75;;
53961;SDS011;39868;53.398;6.564;2022-11-04T06:23:59;4.47;;;3.55;;
53961;SDS011;39868;53.398;6.564;2022-11-04T06:26:28;3.40;;;3.20;;
53961;SDS011;39868;53.398;6.564;2022-11-04T06:28:56;4.15;;;3.80;;
53961;SDS011;39868;53.398;6.564;2022-11-04T06:31:24;3.58;;;3.47;;
53961;SDS011;39868;53.398;6.564;2022-11-04T06:33:52;3.85;;;3.50;;
53961;SDS011;39868;53.398;6.564;2022-11-04T06:36:19;3.95;;;3.65;;
53961;SDS011;39868;53.398;6.564;2022-11-04T06:38:47;3.67;;;3.47;;
53961;SDS011;39868;53.398;6.564;2022-11-04T06:41:15;4.00;;;3.70;;
53961;SDS011;39868;53.398;6.564;2022-11-04T06:43:43;4.10;;;3.85;;
53961;SDS011;39868;53.398;6.564;2022-11-04T06:49:03;3.90;;;3.60;;
53961;SDS011;39868;53.398;6.564;2022-11-04T06:51:32;5.45;;;3.70;;
53961;SDS011;39868;53.398;6.564;2022-11-04T06:54:00;3.78;;;3.47;;
53961;SDS011;39868;53.398;6.564;2022-11-04T06:56:27;4.20;;;3.90;;
53961;SDS011;39868;53.398;6.564;2022-11-04T06:58:55;3.80;;;3.60;;
53961;SDS011;39868;53.398;6.564;2022-11-04T07:01:24;3.97;;;3.78;;
53961;SDS011;39868;53.398;6.564;2022-11-04T07:03:56;3.83;;;3.55;;
53961;SDS011;39868;53.398;6.564;2022-11-04T07:06:25;3.97;;;3.67;;
53961;SDS011;39868;53.398;6.564;2022-11-04T07:08:55;3.50;;;3.30;;
53961;SDS011;39868;53.398;6.564;2022-11-04T07:11:24;3.70;;;3.40;;
53961;SDS011;39868;53.398;6.564;2022-11-04T07:13:53;3.80;;;3.45;;
53961;SDS011;39868;53.398;6.564;2022-11-04T07:16:21;3.55;;;3.35;;
53961;SDS011;39868;53.398;6.564;2022-11-04T07:18:49;3.20;;;3.10;;
53961;SDS011;39868;53.398;6.564;2022-11-04T07:21:17;3.50;;;3.30;;
53961;SDS011;39868;53.398;6.564;2022-11-04T07:23:45;3.30;;;3.10;;
53961;SDS011;39868;53.398;6.564;2022-11-04T07:26:12;3.80;;;3.50;;
53961;SDS011;39868;53.398;6.564;2022-11-04T07:28:40;4.18;;;3.30;;
53961;SDS011;39868;53.398;6.564;2022-11-04T07:31:08;5.50;;;3.72;;
53961;SDS011;39868;53.398;6.564;2022-11-04T07:33:37;3.50;;;3.30;;
53961;SDS011;39868;53.398;6.564;2022-11-04T07:36:06;3.20;;;3.10;;
53961;SDS011;39868;53.398;6.564;2022-11-04T07:38:36;3.58;;;3.28;;
53961;SDS011;39868;53.398;6.564;2022-11-04T07:41:04;3.60;;;3.38;;
53961;SDS011;39868;53.398;6.564;2022-11-04T07:43:31;3.30;;;3.20;;
53961;SDS011;39868;53.398;6.564;2022-11-04T07:46:00;3.50;;;3.30;;
53961;SDS011;39868;53.398;6.564;2022-11-04T07:48:32;3.97;;;3.50;;
53961;SDS011;39868;53.398;6.564;2022-11-04T07:51:01;3.47;;;3.28;;
53961;SDS011;39868;53.398;6.564;2022-11-04T07:53:30;3.85;;;3.55;;
53961;SDS011;39868;53.398;6.564;2022-11-04T07:55:58;3.60;;;3.40;;
53961;SDS011;39868;53.398;6.564;2022-11-04T07:58:30;3.70;;;3.40;;
53961;SDS011;39868;53.398;6.564;2022-11-04T08:00:58;3.70;;;3.50;;
53961;SDS011;39868;53.398;6.564;2022-11-04T08:03:27;4.20;;;3.70;;
53961;SDS011;39868;53.398;6.564;2022-11-04T08:05:58;3.83;;;3.55;;
53961;SDS011;39868;53.398;6.564;2022-11-04T08:08:27;4.63;;;3.40;;
53961;SDS011;39868;53.398;6.564;2022-11-04T08:10:56;3.95;;;3.67;;
53961;SDS011;39868;53.398;6.564;2022-11-04T08:13:26;4.03;;;3.72;;
53961;SDS011;39868;53.398;6.564;2022-11-04T08:15:55;3.63;;;3.42;;
53961;SDS011;39868;53.398;6.564;2022-11-04T08:18:23;3.90;;;3.70;;
53961;SDS011;39868;53.398;6.564;2022-11-04T08:20:50;4.00;;;3.67;;
53961;SDS011;39868;53.398;6.564;2022-11-04T08:23:18;3.75;;;3.55;;
53961;SDS011;39868;53.398;6.564;2022-11-04T08:25:46;4.07;;;3.50;;
53961;SDS011;39868;53.398;6.564;2022-11-04T08:28:14;4.07;;;3.85;;
53961;SDS011;39868;53.398;6.564;2022-11-04T08:30:53;3.92;;;3.72;;
53961;SDS011;39868;53.398;6.564;2022-11-04T08:33:22;3.95;;;3.65;;
53961;SDS011;39868;53.398;6.564;2022-11-04T08:35:50;3.88;;;3.58;;
53961;SDS011;39868;53.398;6.564;2022-11-04T08:38:18;3.92;;;3.63;;
53961;SDS011;39868;53.398;6.564;2022-11-04T08:40:46;4.10;;;3.80;;
53961;SDS011;39868;53.398;6.564;2022-11-04T08:43:13;3.95;;;3.75;;
53961;SDS011;39868;53.398;6.564;2022-11-04T08:45:42;4.10;;;3.90;;
53961;SDS011;39868;53.398;6.564;2022-11-04T08:48:12;4.10;;;3.90;;
53961;SDS011;39868;53.398;6.564;2022-11-04T08:50:40;4.50;;;4.07;;
53961;SDS011;39868;53.398;6.564;2022-11-04T08:53:08;4.57;;;4.18;;
53961;SDS011;39868;53.398;6.564;2022-11-04T08:55:36;5.32;;;4.18;;
53961;SDS011;39868;53.398;6.564;2022-11-04T08:58:03;4.55;;;4.22;;
53961;SDS011;39868;53.398;6.564;2022-11-04T09:00:31;4.55;;;4.18;;
53961;SDS011;39868;53.398;6.564;2022-11-04T09:02:59;3.70;;;3.50;;
53961;SDS011;39868;53.398;6.564;2022-11-04T09:05:27;4.70;;;4.25;;
53961;SDS011;39868;53.398;6.564;2022-11-04T09:07:54;4.53;;;4.22;;
53961;SDS011;39868;53.398;6.564;2022-11-04T09:10:22;4.53;;;4.20;;
53961;SDS011;39868;53.398;6.564;2022-11-04T09:12:49;3.90;;;3.70;;
53961;SDS011;39868;53.398;6.564;2022-11-04T09:15:17;4.63;;;4.32;;
53961;SDS011;39868;53.398;6.564;2022-11-04T09:17:45;4.10;;;3.90;;
53961;SDS011;39868;53.398;6.564;2022-11-04T09:20:12;3.97;;;3.78;;
53961;SDS011;39868;53.398;6.564;2022-11-04T09:22:39;4.60;;;4.25;;
53961;SDS011;39868;53.398;6.564;2022-11-04T09:25:11;4.00;;;3.70;;
53961;SDS011;39868;53.398;6.564;2022-11-04T09:27:39;4.15;;;3.95;;
53961;SDS011;39868;53.398;6.564;2022-11-04T09:30:06;4.25;;;4.05;;
53961;SDS011;39868;53.398;6.564;2022-11-04T09:32:35;4.78;;;4.35;;
53961;SDS011;39868;53.398;6.564;2022-11-04T09:35:02;4.10;;;3.90;;
53961;SDS011;39868;53.398;6.564;2022-11-04T09:37:30;4.60;;;4.30;;
53961;SDS011;39868;53.398;6.564;2022-11-04T09:39:58;5.30;;;3.95;;
53961;SDS011;39868;53.398;6.564;2022-11-04T09:44:54;5.50;;;4.47;;
53961;SDS011;39868;53.398;6.564;2022-11-04T09:47:47;4.70;;;4.30;;
53961;SDS011;39868;53.398;6.564;2022-11-04T09:50:22;5.32;;;4.60;;
53961;SDS011;39868;53.398;6.564;2022-11-04T09:52:56;4.65;;;4.45;;
53961;SDS011;39868;53.398;6.564;2022-11-04T09:56:17;5.15;;;4.68;;
53961;SDS011;39868;53.398;6.564;2022-11-04T09:58:30;4.80;;;4.50;;
53961;SDS011;39868;53.398;6.564;2022-11-04T10:04:18;5.13;;;4.80;;
53961;SDS011;39868;53.398;6.564;2022-11-04T10:09:49;4.93;;;4.63;;
53961;SDS011;39868;53.398;6.564;2022-11-04T10:12:52;5.30;;;4.90;;
53961;SDS011;39868;53.398;6.564;2022-11-04T10:15:43;4.82;;;4.55;;
53961;SDS011;39868;53.398;6.564;2022-11-04T10:18:57;5.50;;;4.70;;
53961;SDS011;39868;53.398;6.564;2022-11-04T10:26:45;4.85;;;4.50;;
53961;SDS011;39868;53.398;6.564;2022-11-04T10:32:43;5.05;;;4.57;;
53961;SDS011;39868;53.398;6.564;2022-11-04T10:35:36;6.05;;;4.80;;
53961;SDS011;39868;53.398;6.564;2022-11-04T10:40:49;5.20;;;4.90;;
53961;SDS011;39868;53.398;6.564;2022-11-04T10:43:30;4.95;;;4.72;;
53961;SDS011;39868;53.398;6.564;2022-11-04T10:51:21;6.10;;;4.90;;
53961;SDS011;39868;53.398;6.564;2022-11-04T10:53:53;5.20;;;4.90;;
53961;SDS011;39868;53.398;6.564;2022-11-04T10:59:30;5.18;;;4.45;;
53961;SDS011;39868;53.398;6.564;2022-11-04T11:01:59;4.72;;;3.47;;
53961;SDS011;39868;53.398;6.564;2022-11-04T11:04:33;3.85;;;3.60;;
53961;SDS011;39868;53.398;6.564;2022-11-04T11:07:03;3.63;;;3.30;;
53961;SDS011;39868;53.398;6.564;2022-11-04T11:09:32;4.00;;;3.80;;
53961;SDS011;39868;53.398;6.564;2022-11-04T11:12:27;5.32;;;3.78;;
53961;SDS011;39868;53.398;6.564;2022-11-04T11:15:17;4.30;;;3.85;;
53961;SDS011;39868;53.398;6.564;2022-11-04T11:20:34;5.05;;;3.30;;
53961;SDS011;39868;53.398;6.564;2022-11-04T11:23:03;4.18;;;3.88;;
53961;SDS011;39868;53.398;6.564;2022-11-04T11:25:36;4.22;;;3.80;;
53961;SDS011;39868;53.398;6.564;2022-11-04T11:28:20;4.78;;;3.90;;
53961;SDS011;39868;53.398;6.564;2022-11-04T11:35:55;3.70;;;3.40;;
53961;SDS011;39868;53.398;6.564;2022-11-04T11:41:32;4.95;;;4.40;;
53961;SDS011;39868;53.398;6.564;2022-11-04T11:45:01;4.72;;;4.40;;
53961;SDS011;39868;53.398;6.564;2022-11-04T11:47:18;5.07;;;4.60;;
53961;SDS011;39868;53.398;6.564;2022-11-04T11:52:49;4.88;;;4.50;;
53961;SDS011;39868;53.398;6.564;2022-11-04T12:01:02;4.80;;;3.63;;
53961;SDS011;39868;53.398;6.564;2022-11-04T12:03:50;4.15;;;3.78;;
53961;SDS011;39868;53.398;6.564;2022-11-04T12:06:42;4.10;;;3.53;;
53961;SDS011;39868;53.398;6.564;2022-11-04T12:21:15;3.90;;;3.60;;
53961;SDS011;39868;53.398;6.564;2022-11-04T12:29:34;4.03;;;3.70;;
53961;SDS011;39868;53.398;6.564;2022-11-04T12:32:51;4.10;;;3.80;;
53961;SDS011;39868;53.398;6.564;2022-11-04T12:35:44;3.63;;;3.42;;
53961;SDS011;39868;53.398;6.564;2022-11-04T12:38:31;3.60;;;3.30;;
53961;SDS011;39868;53.398;6.564;2022-11-04T12:44:38;3.25;;;3.03;;
53961;SDS011;39868;53.398;6.564;2022-11-04T12:50:22;3.70;;;3.40;;
53961;SDS011;39868;53.398;6.564;2022-11-04T12:53:12;3.13;;;2.92;;
53961;SDS011;39868;53.398;6.564;2022-11-04T12:56:09;6.22;;;3.25;;
53961;SDS011;39868;53.398;6.564;2022-11-04T13:01:37;3.97;;;3.00;;
53961;SDS011;39868;53.398;6.564;2022-11-04T13:04:28;3.20;;;2.92;;
53961;SDS011;39868;53.398;6.564;2022-11-04T13:07:14;3.33;;;3.03;;
53961;SDS011;39868;53.398;6.564;2022-11-04T13:09:50;4.80;;;3.30;;
53961;SDS011;39868;53.398;6.564;2022-11-04T13:12:24;5.75;;;3.60;;
53961;SDS011;39868;53.398;6.564;2022-11-04T13:15:01;4.68;;;3.40;;
53961;SDS011;39868;53.398;6.564;2022-11-04T13:17:38;3.53;;;3.20;;
53961;SDS011;39868;53.398;6.564;2022-11-04T13:22:44;3.47;;;3.20;;
53961;SDS011;39868;53.398;6.564;2022-11-04T13:25:16;3.55;;;3.20;;
53961;SDS011;39868;53.398;6.564;2022-11-04T13:28:02;3.72;;;3.28;;
53961;SDS011;39868;53.398;6.564;2022-11-04T13:30:36;4.03;;;3.65;;
53961;SDS011;39868;53.398;6.564;2022-11-04T13:38:33;3.10;;;2.90;;
53961;SDS011;39868;53.398;6.564;2022-11-04T13:43:54;4.07;;;3.03;;
53961;SDS011;39868;53.398;6.564;2022-11-04T13:46:26;5.90;;;3.22;;
53961;SDS011;39868;53.398;6.564;2022-11-04T13:49:04;3.50;;;3.20;;
53961;SDS011;39868;53.398;6.564;2022-11-04T13:51:42;4.18;;;3.05;;
53961;SDS011;39868;53.398;6.564;2022-11-04T13:54:22;6.72;;;3.20;;
53961;SDS011;39868;53.398;6.564;2022-11-04T13:56:50;5.93;;;3.05;;
53961;SDS011;39868;53.398;6.564;2022-11-04T13:59:40;5.88;;;3.05;;
53961;SDS011;39868;53.398;6.564;2022-11-04T14:04:38;7.38;;;3.30;;
53961;SDS011;39868;53.398;6.564;2022-11-04T14:07:16;7.47;;;3.50;;
53961;SDS011;39868;53.398;6.564;2022-11-04T14:09:52;4.63;;;3.03;;
53961;SDS011;39868;53.398;6.564;2022-11-04T14:12:27;4.85;;;2.78;;
53961;SDS011;39868;53.398;6.564;2022-11-04T14:15:11;4.78;;;3.08;;
53961;SDS011;39868;53.398;6.564;2022-11-04T14:23:00;3.13;;;2.72;;
53961;SDS011;39868;53.398;6.564;2022-11-04T14:25:37;11.27;;;2.88;;
53961;SDS011;39868;53.398;6.564;2022-11-04T14:33:26;7.82;;;2.92;;
53961;SDS011;39868;53.398;6.564;2022-11-04T14:36:15;6.25;;;2.97;;
53961;SDS011;39868;53.398;6.564;2022-11-04T14:52:26;5.13;;;2.08;;
53961;SDS011;39868;53.398;6.564;2022-11-04T14:57:40;10.10;;;2.97;;
53961;SDS011;39868;53.398;6.564;2022-11-04T15:06:07;6.28;;;1.98;;
53961;SDS011;39868;53.398;6.564;2022-11-04T15:08:42;4.07;;;2.45;;
53961;SDS011;39868;53.398;6.564;2022-11-04T15:11:21;5.53;;;1.80;;
53961;SDS011;39868;53.398;6.564;2022-11-04T15:14:28;3.15;;;1.98;;
53961;SDS011;39868;53.398;6.564;2022-11-04T15:17:09;4.30;;;2.60;;
53961;SDS011;39868;53.398;6.564;2022-11-04T15:19:46;9.20;;;2.47;;
53961;SDS011;39868;53.398;6.564;2022-11-04T15:22:16;5.07;;;2.15;;
53961;SDS011;39868;53.398;6.564;2022-11-04T15:24:45;7.35;;;2.15;;
53961;SDS011;39868;53.398;6.564;2022-11-04T15:27:14;3.08;;;1.88;;
53961;SDS011;39868;53.398;6.564;2022-11-04T15:29:56;6.65;;;2.55;;
53961;SDS011;39868;53.398;6.564;2022-11-04T15:32:26;2.90;;;1.88;;
53961;SDS011;39868;53.398;6.564;2022-11-04T15:34:54;2.25;;;1.70;;
53961;SDS011;39868;53.398;6.564;2022-11-04T15:37:22;5.22;;;2.15;;
53961;SDS011;39868;53.398;6.564;2022-11-04T15:39:53;3.75;;;2.05;;
53961;SDS011;39868;53.398;6.564;2022-11-04T15:42:24;4.93;;;2.00;;
53961;SDS011;39868;53.398;6.564;2022-11-04T15:50:56;5.28;;;1.90;;
53961;SDS011;39868;53.398;6.564;2022-11-04T15:53:32;4.30;;;1.63;;
53961;SDS011;39868;53.398;6.564;2022-11-04T15:56:04;9.80;;;2.33;;
53961;SDS011;39868;53.398;6.564;2022-11-04T15:58:32;8.18;;;2.33;;
53961;SDS011;39868;53.398;6.564;2022-11-04T16:01:00;5.32;;;1.92;;
53961;SDS011;39868;53.398;6.564;2022-11-04T16:03:28;4.32;;;2.03;;
53961;SDS011;39868;53.398;6.564;2022-11-04T16:05:59;6.60;;;1.63;;
53961;SDS011;39868;53.398;6.564;2022-11-04T16:08:30;4.78;;;1.90;;
53961;SDS011;39868;53.398;6.564;2022-11-04T16:11:11;3.80;;;1.60;;
53961;SDS011;39868;53.398;6.564;2022-11-04T16:13:44;6.13;;;1.77;;
53961;SDS011;39868;53.398;6.564;2022-11-04T16:16:22;6.05;;;1.50;;
53961;SDS011;39868;53.398;6.564;2022-11-04T16:18:55;3.22;;;1.70;;
53961;SDS011;39868;53.398;6.564;2022-11-04T16:26:57;4.72;;;1.50;;
53961;SDS011;39868;53.398;6.564;2022-11-04T16:29:29;4.05;;;1.38;;
53961;SDS011;39868;53.398;6.564;2022-11-04T16:34:52;5.20;;;1.53;;
53961;SDS011;39868;53.398;6.564;2022-11-04T16:37:25;6.45;;;1.80;;
53961;SDS011;39868;53.398;6.564;2022-11-04T16:39:53;4.75;;;1.60;;
53961;SDS011;39868;53.398;6.564;2022-11-04T16:42:21;5.30;;;2.00;;
53961;SDS011;39868;53.398;6.564;2022-11-04T16:44:51;5.63;;;1.60;;
53961;SDS011;39868;53.398;6.564;2022-11-04T16:47:24;2.28;;;1.60;;
53961;SDS011;39868;53.398;6.564;2022-11-04T16:49:59;4.85;;;1.65;;
53961;SDS011;39868;53.398;6.564;2022-11-04T16:52:27;2.00;;;1.80;;
53961;SDS011;39868;53.398;6.564;2022-11-04T16:54:56;6.53;;;1.83;;
53961;SDS011;39868;53.398;6.564;2022-11-04T16:57:24;2.83;;;1.42;;
53961;SDS011;39868;53.398;6.564;2022-11-04T16:59:51;4.78;;;1.48;;
53961;SDS011;39868;53.398;6.564;2022-11-04T17:04:57;4.70;;;1.63;;
53961;SDS011;39868;53.398;6.564;2022-11-04T17:07:24;6.32;;;1.75;;
53961;SDS011;39868;53.398;6.564;2022-11-04T17:10:20;3.78;;;1.88;;
53961;SDS011;39868;53.398;6.564;2022-11-04T17:12:49;7.82;;;1.83;;
53961;SDS011;39868;53.398;6.564;2022-11-04T17:15:16;4.63;;;1.65;;
53961;SDS011;39868;53.398;6.564;2022-11-04T17:17:44;5.65;;;1.58;;
53961;SDS011;39868;53.398;6.564;2022-11-04T17:20:13;2.90;;;1.70;;
53961;SDS011;39868;53.398;6.564;2022-11-04T17:22:43;2.40;;;1.50;;
53961;SDS011;39868;53.398;6.564;2022-11-04T17:25:23;3.15;;;1.65;;
53961;SDS011;39868;53.398;6.564;2022-11-04T17:27:53;7.93;;;2.25;;
53961;SDS011;39868;53.398;6.564;2022-11-04T17:30:21;7.43;;;2.20;;
53961;SDS011;39868;53.398;6.564;2022-11-04T17:32:50;5.22;;;2.33;;
53961;SDS011;39868;53.398;6.564;2022-11-04T17:35:17;3.83;;;1.88;;
53961;SDS011;39868;53.398;6.564;2022-11-04T17:37:45;5.68;;;1.77;;
53961;SDS011;39868;53.398;6.564;2022-11-04T17:40:13;5.32;;;1.75;;
53961;SDS011;39868;53.398;6.564;2022-11-04T17:42:42;4.65;;;1.73;;
53961;SDS011;39868;53.398;6.564;2022-11-04T17:45:36;4.65;;;1.88;;
53961;SDS011;39868;53.398;6.564;2022-11-04T17:48:04;3.58;;;1.70;;
53961;SDS011;39868;53.398;6.564;2022-11-04T17:50:33;4.03;;;1.70;;
53961;SDS011;39868;53.398;6.564;2022-11-04T17:53:03;3.10;;;1.42;;
53961;SDS011;39868;53.398;6.564;2022-11-04T17:55:34;5.72;;;1.58;;
53961;SDS011;39868;53.398;6.564;2022-11-04T17:58:04;5.80;;;2.05;;
53961;SDS011;39868;53.398;6.564;2022-11-04T18:00:31;4.57;;;1.38;;
53961;SDS011;39868;53.398;6.564;2022-11-04T18:02:59;5.80;;;1.85;;
53961;SDS011;39868;53.398;6.564;2022-11-04T18:05:27;4.25;;;1.60;;
53961;SDS011;39868;53.398;6.564;2022-11-04T18:07:54;4.97;;;1.83;;
53961;SDS011;39868;53.398;6.564;2022-11-04T18:10:24;6.32;;;1.85;;
53961;SDS011;39868;53.398;6.564;2022-11-04T18:12:51;5.80;;;2.20;;
53961;SDS011;39868;53.398;6.564;2022-11-04T18:15:19;3.15;;;1.83;;
53961;SDS011;39868;53.398;6.564;2022-11-04T18:17:46;4.78;;;2.05;;
53961;SDS011;39868;53.398;6.564;2022-11-04T18:20:15;4.53;;;2.00;;
53961;SDS011;39868;53.398;6.564;2022-11-04T18:22:47;5.28;;;1.73;;
53961;SDS011;39868;53.398;6.564;2022-11-04T18:25:15;4.65;;;1.90;;
53961;SDS011;39868;53.398;6.564;2022-11-04T18:27:42;5.25;;;1.83;;
53961;SDS011;39868;53.398;6.564;2022-11-04T18:30:10;2.47;;;1.35;;
53961;SDS011;39868;53.398;6.564;2022-11-04T18:32:38;3.25;;;2.08;;
53961;SDS011;39868;53.398;6.564;2022-11-04T18:35:06;3.78;;;1.40;;